createdAt,value
2023-03-16T00:02:13.069Z,10.00
2023-03-16T00:07:16.026Z,9.90
2023-03-16T00:12:19.617Z,9.90
2023-03-16T00:17:22.081Z,9.90
2023-03-16T00:22:29.214Z,9.80
2023-03-16T00:27:31.359Z,9.80
2023-03-16T00:32:35.663Z,9.70
2023-03-16T00:37:39.773Z,9.70
2023-03-16T00:42:43.594Z,9.60
2023-03-16T00:47:45.773Z,9.50
2023-03-16T00:52:50.155Z,9.50
2023-03-16T00:57:53.294Z,9.50
2023-03-16T01:02:55.623Z,9.40
2023-03-16T01:07:57.835Z,9.30
2023-03-16T01:12:59.997Z,9.30
2023-03-16T01:18:02.643Z,9.20
2023-03-16T01:23:05.013Z,9.20
2023-03-16T01:28:07.205Z,9.20
2023-03-16T01:33:09.780Z,9.20
2023-03-16T01:38:12.232Z,9.30
2023-03-16T01:43:15.015Z,9.30
2023-03-16T01:48:23.647Z,9.10
2023-03-16T01:53:27.305Z,9.20
2023-03-16T01:58:33.214Z,9.20
2023-03-16T02:03:35.448Z,9.30
2023-03-16T02:08:50.042Z,9.20
2023-03-16T02:13:53.237Z,9.30
2023-03-16T02:18:56.419Z,9.40
2023-03-16T02:23:59.982Z,9.40
2023-03-16T02:29:41.302Z,9.40
2023-03-16T02:34:48.908Z,9.50
2023-03-16T02:39:51.730Z,9.50
2023-03-16T02:44:59.620Z,9.50
2023-03-16T02:50:12.696Z,9.50
2023-03-16T02:55:16.425Z,9.50
2023-03-16T03:00:22.368Z,9.50
2023-03-16T03:05:26.816Z,9.50
2023-03-16T03:10:31.307Z,9.40
2023-03-16T03:15:36.557Z,9.40
2023-03-16T03:20:46.322Z,9.30
2023-03-16T03:25:53.082Z,9.30
2023-03-16T03:30:58.640Z,9.30
2023-03-16T03:36:02.759Z,9.20
2023-03-16T03:41:11.574Z,9.20
2023-03-16T03:46:15.398Z,9.20
2023-03-16T03:51:19.636Z,9.30
2023-03-16T03:56:35.719Z,9.40
2023-03-16T04:01:40.127Z,9.40
2023-03-16T04:06:43.393Z,9.40
2023-03-16T04:11:46.778Z,9.40
2023-03-16T04:16:51.430Z,9.30
2023-03-16T04:21:56.525Z,9.40
2023-03-16T04:27:08.364Z,9.50
2023-03-16T04:32:11.533Z,9.50
2023-03-16T04:37:16.403Z,9.60
2023-03-16T04:42:19.239Z,9.60
2023-03-16T04:47:23.659Z,9.60
2023-03-16T04:52:29.020Z,9.70
2023-03-16T04:57:32.441Z,9.80
2023-03-16T05:02:36.022Z,9.90
2023-03-16T05:07:41.600Z,9.90
2023-03-16T05:12:48.305Z,9.90
2023-03-16T05:17:57.697Z,9.80
2023-03-16T05:23:05.069Z,9.80
2023-03-16T05:28:22.501Z,9.80
2023-03-16T05:33:33.711Z,9.60
2023-03-16T05:38:42.915Z,9.60
2023-03-16T05:43:49.095Z,9.50
2023-03-16T05:48:54.190Z,9.40
2023-03-16T05:53:59.016Z,9.30
2023-03-16T05:59:21.840Z,9.30
2023-03-16T06:04:29.037Z,9.30
2023-03-16T06:09:35.078Z,9.30
2023-03-16T06:14:45.380Z,9.30
2023-03-16T06:19:52.514Z,9.30
2023-03-16T06:24:59.525Z,9.30
2023-03-16T06:30:20.864Z,9.30
2023-03-16T06:35:30.809Z,9.20
2023-03-16T06:40:47.938Z,9.20
2023-03-16T06:45:52.627Z,9.20
2023-03-16T06:51:04.336Z,9.20
2023-03-16T06:56:13.181Z,9.30
2023-03-16T07:01:21.312Z,9.30
2023-03-16T07:06:32.858Z,9.50
2023-03-16T07:11:36.694Z,9.50
2023-03-16T07:16:39.343Z,9.60
2023-03-16T07:21:45.975Z,9.70
2023-03-16T07:26:55.316Z,9.80
2023-03-16T07:37:52.754Z,10.10
2023-03-16T07:42:57.676Z,10.20
2023-03-16T07:48:15.318Z,10.30
2023-03-16T07:53:29.230Z,10.40
2023-03-16T07:58:52.027Z,10.50
2023-03-16T08:04:02.451Z,10.50
2023-03-16T08:09:11.797Z,10.60
2023-03-16T08:14:19.966Z,10.60
2023-03-16T08:20:14.230Z,10.70
2023-03-16T08:25:25.693Z,10.80
2023-03-16T08:30:52.766Z,11.00
2023-03-16T08:36:14.389Z,11.10
2023-03-16T08:41:46.842Z,11.20
2023-03-16T08:47:18.534Z,11.30
2023-03-16T08:52:23.800Z,11.50
2023-03-16T08:57:30.829Z,11.80
2023-03-16T09:02:34.063Z,11.90
2023-03-16T09:07:38.998Z,11.90
2023-03-16T09:12:48.882Z,12.00
2023-03-16T09:17:55.186Z,12.10
2023-03-16T09:22:58.917Z,12.20
2023-03-16T09:28:01.936Z,12.20
2023-03-16T09:33:05.449Z,12.30
2023-03-16T09:38:08.092Z,12.50
2023-03-16T09:43:17.044Z,12.60
2023-03-16T09:48:21.450Z,12.90
2023-03-16T09:53:39.483Z,12.90
2023-03-16T09:58:44.324Z,13.00
2023-03-16T10:03:59.258Z,13.30
2023-03-16T10:09:14.190Z,13.30
2023-03-16T10:14:41.039Z,13.60
2023-03-16T10:19:55.903Z,13.70
2023-03-16T10:25:30.816Z,14.00
2023-03-16T10:30:38.811Z,14.30
2023-03-16T10:36:10.345Z,14.40
2023-03-16T10:41:18.435Z,14.70
2023-03-16T10:46:25.972Z,15.10
2023-03-16T10:51:40.364Z,15.80
2023-03-16T10:56:44.277Z,15.70
2023-03-16T11:01:50.408Z,15.20
2023-03-16T11:06:57.082Z,15.50
2023-03-16T11:12:00.289Z,15.80
2023-03-16T11:17:18.387Z,15.70
2023-03-16T11:22:25.570Z,16.20
2023-03-16T11:27:46.654Z,16.40
2023-03-16T11:32:54.058Z,16.10
2023-03-16T11:38:11.835Z,16.40
2023-03-16T11:43:38.104Z,16.50
2023-03-16T11:49:00.557Z,16.80
2023-03-16T11:54:21.259Z,16.80
2023-03-16T12:00:01.047Z,17.00
2023-03-16T12:05:30.620Z,16.60
2023-03-16T12:10:49.730Z,16.30
2023-03-16T12:15:59.808Z,16.10
2023-03-16T12:21:14.136Z,15.80
2023-03-16T12:26:18.003Z,15.70
2023-03-16T12:31:54.207Z,15.90
2023-03-16T12:37:29.263Z,16.30
2023-03-16T12:42:56.366Z,16.70
2023-03-16T12:48:25.169Z,16.50
2023-03-16T12:53:49.223Z,17.10
2023-03-16T12:58:55.828Z,16.80
2023-03-16T13:04:19.950Z,16.70
2023-03-16T13:09:28.241Z,16.70
2023-03-16T13:14:43.153Z,16.50
2023-03-16T13:20:04.104Z,16.30
2023-03-16T13:25:28.086Z,16.20
2023-03-16T13:30:34.888Z,16.30
2023-03-16T13:35:41.066Z,16.30
2023-03-16T13:40:50.039Z,16.10
2023-03-16T13:45:52.703Z,15.80
2023-03-16T13:50:59.498Z,15.70
2023-03-16T13:56:02.663Z,15.60
2023-03-16T14:01:20.652Z,16.00
2023-03-16T14:06:28.855Z,16.30
2023-03-16T14:11:32.544Z,16.30
2023-03-16T14:16:35.811Z,16.00
2023-03-16T14:21:38.189Z,15.80
2023-03-16T14:26:42.820Z,15.80
2023-03-16T14:31:46.207Z,15.60
2023-03-16T14:36:49.780Z,15.50
2023-03-16T14:41:52.876Z,15.50
2023-03-16T14:46:59.466Z,15.40
2023-03-16T14:52:18.096Z,15.10
2023-03-16T14:57:21.689Z,15.00
2023-03-16T15:02:33.160Z,14.70
2023-03-16T15:07:41.390Z,14.60
2023-03-16T15:12:54.264Z,14.50
2023-03-16T15:18:00.642Z,14.50
2023-03-16T15:23:05.006Z,14.40
2023-03-16T15:28:14.760Z,14.40
2023-03-16T15:33:17.907Z,14.30
2023-03-16T15:38:26.963Z,14.10
2023-03-16T15:43:32.163Z,14.00
2023-03-16T15:48:36.785Z,13.90
2023-03-16T15:53:44.274Z,13.80
2023-03-16T15:58:47.624Z,13.80
2023-03-16T16:03:51.667Z,14.00
2023-03-16T16:20:25.873Z,13.70
2023-03-16T16:26:23.018Z,13.60
2023-03-16T16:31:34.442Z,13.60
2023-03-16T16:36:40.636Z,13.50
2023-03-16T16:41:51.726Z,13.50
2023-03-16T16:46:59.325Z,13.40
2023-03-16T16:57:21.365Z,13.20
2023-03-16T17:02:33.136Z,13.00
2023-03-16T17:07:39.997Z,12.90
2023-03-16T17:12:42.614Z,12.90
2023-03-16T17:17:45.971Z,12.90
2023-03-16T17:22:48.940Z,12.80
2023-03-16T17:27:53.592Z,12.80
2023-03-16T17:33:03.933Z,12.70
2023-03-16T17:38:22.974Z,12.70
2023-03-16T17:43:25.382Z,12.70
2023-03-16T17:48:27.619Z,12.70
2023-03-16T17:53:29.928Z,12.60
2023-03-16T17:58:32.539Z,12.60
2023-03-16T18:03:34.987Z,12.60
2023-03-16T18:08:37.252Z,12.60
2023-03-16T18:13:41.158Z,12.60
2023-03-16T18:18:43.663Z,12.60
2023-03-16T18:23:46.691Z,12.60
2023-03-16T18:28:48.932Z,12.60
2023-03-16T18:33:55.079Z,12.60
2023-03-16T18:39:01.746Z,12.60
2023-03-16T18:44:12.835Z,12.60
2023-03-16T18:49:20.822Z,12.50
2023-03-16T18:54:30.726Z,12.50
2023-03-16T18:59:33.028Z,12.50
2023-03-16T19:04:35.598Z,12.40
2023-03-16T19:09:38.012Z,12.40
2023-03-16T19:14:40.222Z,12.30
2023-03-16T19:19:42.992Z,12.30
2023-03-16T19:24:51.840Z,12.30
2023-03-16T19:29:54.789Z,12.30
2023-03-16T19:34:57.201Z,12.20
2023-03-16T19:40:00.418Z,12.20
2023-03-16T19:45:04.279Z,12.20
2023-03-16T19:50:17.356Z,12.20
2023-03-16T19:55:26.522Z,12.20
2023-03-16T20:00:31.256Z,12.10
2023-03-16T20:05:33.848Z,12.10
2023-03-16T20:10:36.494Z,12.10
2023-03-16T20:15:38.706Z,12.10
2023-03-16T20:20:42.463Z,12.10
2023-03-16T20:25:46.693Z,12.10
2023-03-16T20:30:49.825Z,12.10
2023-03-16T20:35:56.281Z,12.10
2023-03-16T20:40:58.688Z,12.10
2023-03-16T20:46:03.973Z,12.00
2023-03-16T20:51:08.436Z,12.00
2023-03-16T20:56:26.714Z,12.00
2023-03-16T21:01:28.948Z,12.00
2023-03-16T21:06:33.794Z,12.00
2023-03-16T21:11:37.993Z,12.00
2023-03-16T21:16:40.561Z,12.00
2023-03-16T21:21:43.606Z,11.90
2023-03-16T21:26:47.616Z,11.90
2023-03-16T21:31:50.134Z,11.90
2023-03-16T21:36:52.500Z,11.90
2023-03-16T21:41:54.747Z,11.90
2023-03-16T21:46:57.177Z,11.90
2023-03-16T21:52:01.234Z,11.90
2023-03-16T21:57:14.068Z,11.90
2023-03-16T22:02:27.666Z,11.90
2023-03-16T22:07:29.919Z,11.90
2023-03-16T22:12:32.117Z,11.90
2023-03-16T22:17:34.944Z,11.90
2023-03-16T22:22:37.153Z,11.90
2023-03-16T22:27:39.344Z,11.90
2023-03-16T22:32:41.872Z,11.90
2023-03-16T22:37:44.214Z,11.90
2023-03-16T22:42:46.495Z,11.80
2023-03-16T22:47:48.958Z,11.90
2023-03-16T22:52:55.770Z,11.90
2023-03-16T22:58:06.613Z,11.90
2023-03-16T23:03:21.092Z,11.80
2023-03-16T23:08:24.441Z,11.80
2023-03-16T23:13:27.417Z,11.80
2023-03-16T23:18:29.670Z,11.70
2023-03-16T23:23:32.417Z,11.70
2023-03-16T23:28:34.650Z,11.70
2023-03-16T23:33:37.025Z,11.70
2023-03-16T23:38:39.282Z,11.70
2023-03-16T23:43:43.926Z,11.70
2023-03-16T23:48:47.998Z,11.70
2023-03-16T23:53:50.820Z,11.70
2023-03-16T23:58:54.057Z,11.60
